Time;durP1;ratioP1;P1;durP2;ratioP2;P2;SDS_P1;SDS_P2;PMS_P1;PMS_P2;Temp;Humidity;BMP_temperature;BMP_pressure;BME280_temperature;BME280_humidity;BME280_pressure;Samples;Min_cycle;Max_cycle;Signal;HPM_P1;HPM_P2
2022/05/20 00:00:39;;;;;;;5.43;2.38;;;;;;;;;;5072031;28;20059;-73
2022/05/20 00:03:07;;;;;;;5.70;2.45;;;;;;;;;;5078383;28;20096;-74
2022/05/20 00:05:36;;;;;;;7.43;2.88;;;;;;;;;;5082011;28;20089;-72
2022/05/20 00:08:03;;;;;;;4.30;2.28;;;;;;;;;;5075936;28;20084;-77
2022/05/20 00:10:29;;;;;;;9.25;2.50;;;;;;;;;;5075247;28;20039;-75
2022/05/20 00:12:55;;;;;;;7.05;2.70;;;;;;;;;;5075861;28;20020;-75
2022/05/20 00:15:23;;;;;;;4.20;2.70;;;;;;;;;;5089143;28;20501;-74
2022/05/20 00:17:50;;;;;;;6.43;2.50;;;;;;;;;;5093282;28;20017;-74
2022/05/20 00:20:20;;;;;;;5.70;2.75;;;;;;;;;;5054320;28;20059;-72
2022/05/20 00:22:46;;;;;;;4.78;2.80;;;;;;;;;;5073993;28;20086;-75
2022/05/20 00:28:02;;;;;;;5.63;2.63;;;;;;;;;;5082733;28;20085;-74
2022/05/20 00:30:29;;;;;;;5.05;2.50;;;;;;;;;;5064353;28;20024;-74
2022/05/20 00:32:58;;;;;;;6.65;2.67;;;;;;;;;;5082442;28;20020;-72
2022/05/20 00:35:24;;;;;;;6.20;2.80;;;;;;;;;;5074299;28;20057;-72
2022/05/20 00:37:50;;;;;;;7.45;2.70;;;;;;;;;;5091152;28;20047;-74
2022/05/20 00:40:18;;;;;;;5.45;2.85;;;;;;;;;;5093756;28;20055;-73
2022/05/20 00:42:44;;;;;;;7.18;2.60;;;;;;;;;;5084652;28;20028;-74
2022/05/20 00:45:11;;;;;;;11.43;2.90;;;;;;;;;;5093042;28;20021;-73
2022/05/20 00:47:41;;;;;;;8.25;2.83;;;;;;;;;;5080182;28;20429;-74
2022/05/20 00:50:13;;;;;;;8.55;2.70;;;;;;;;;;5061997;28;20473;-76
2022/05/20 00:52:42;;;;;;;4.88;2.42;;;;;;;;;;5057187;28;20028;-74
2022/05/20 00:55:12;;;;;;;5.93;2.65;;;;;;;;;;5089939;28;20029;-72
2022/05/20 00:57:48;;;;;;;8.65;2.80;;;;;;;;;;5074872;28;20157;-72
2022/05/20 01:00:17;;;;;;;4.35;2.60;;;;;;;;;;5076707;28;20033;-72
2022/05/20 01:02:45;;;;;;;5.13;2.80;;;;;;;;;;5081439;28;20500;-76
2022/05/20 01:05:23;;;;;;;6.30;2.83;;;;;;;;;;5089216;28;20028;-74
2022/05/20 01:07:49;;;;;;;8.45;2.60;;;;;;;;;;5096484;28;20145;-74
2022/05/20 01:10:15;;;;;;;6.60;2.50;;;;;;;;;;5086795;28;20084;-72
2022/05/20 01:12:41;;;;;;;4.38;2.53;;;;;;;;;;5074729;28;20406;-74
2022/05/20 01:15:08;;;;;;;4.65;2.50;;;;;;;;;;5077340;28;20066;-73
2022/05/20 01:17:34;;;;;;;5.30;2.67;;;;;;;;;;5078060;28;20035;-74
2022/05/20 01:20:00;;;;;;;4.43;2.78;;;;;;;;;;5076247;28;20022;-74
2022/05/20 01:22:26;;;;;;;3.63;2.50;;;;;;;;;;5076462;28;20032;-72
2022/05/20 01:25:00;;;;;;;16.58;3.92;;;;;;;;;;5074934;28;20058;-71
2022/05/20 01:27:26;;;;;;;10.15;2.90;;;;;;;;;;5077408;28;20035;-73
2022/05/20 01:29:52;;;;;;;6.55;2.80;;;;;;;;;;5095411;28;20085;-72
2022/05/20 01:32:18;;;;;;;6.45;2.70;;;;;;;;;;5080564;28;20025;-72
2022/05/20 01:34:47;;;;;;;5.18;2.60;;;;;;;;;;5090594;28;20052;-74
2022/05/20 01:37:13;;;;;;;8.35;2.85;;;;;;;;;;5087016;28;20036;-74
2022/05/20 01:39:42;;;;;;;5.47;2.53;;;;;;;;;;5092634;28;20029;-74
2022/05/20 01:42:16;;;;;;;4.97;2.70;;;;;;;;;;5075554;28;20059;-74
2022/05/20 01:44:46;;;;;;;7.05;2.72;;;;;;;;;;5057017;28;20047;-74
2022/05/20 01:47:31;;;;;;;9.18;2.90;;;;;;;;;;5078306;28;20031;-73
2022/05/20 01:50:00;;;;;;;3.70;2.50;;;;;;;;;;5088695;28;20024;-73
2022/05/20 01:52:33;;;;;;;4.53;2.60;;;;;;;;;;5065070;28;20028;-73
2022/05/20 01:55:07;;;;;;;4.15;2.60;;;;;;;;;;5084635;28;20020;-74
2022/05/20 01:57:34;;;;;;;5.50;2.40;;;;;;;;;;5086129;28;20021;-73
2022/05/20 02:00:04;;;;;;;5.65;2.70;;;;;;;;;;5073486;28;20029;-74
2022/05/20 02:02:35;;;;;;;4.45;2.70;;;;;;;;;;5074389;28;20025;-74
2022/05/20 02:05:20;;;;;;;5.05;3.00;;;;;;;;;;5077745;28;20515;-72
2022/05/20 02:07:50;;;;;;;5.03;2.67;;;;;;;;;;5077749;28;20054;-75
2022/05/20 02:10:25;;;;;;;4.60;2.53;;;;;;;;;;5074399;28;20457;-75
2022/05/20 02:12:53;;;;;;;7.55;2.55;;;;;;;;;;5072832;28;20153;-74
2022/05/20 02:15:22;;;;;;;7.40;2.85;;;;;;;;;;5074270;28;20025;-75
2022/05/20 02:17:52;;;;;;;5.38;2.95;;;;;;;;;;5077931;28;20032;-76
2022/05/20 02:20:23;;;;;;;5.40;2.60;;;;;;;;;;5068832;28;20036;-72
2022/05/20 02:22:57;;;;;;;4.88;2.83;;;;;;;;;;5074078;28;20032;-72
2022/05/20 02:25:28;;;;;;;7.20;2.88;;;;;;;;;;5075129;28;20393;-71
2022/05/20 02:27:56;;;;;;;7.85;2.83;;;;;;;;;;5074344;28;20043;-74
2022/05/20 02:30:26;;;;;;;4.13;2.72;;;;;;;;;;5080356;28;20052;-72
2022/05/20 02:32:54;;;;;;;11.93;2.88;;;;;;;;;;5082484;28;20032;-74
2022/05/20 02:35:21;;;;;;;6.18;2.70;;;;;;;;;;5080637;28;20143;-72
2022/05/20 02:37:47;;;;;;;9.68;3.28;;;;;;;;;;5086887;28;20401;-74
2022/05/20 02:40:15;;;;;;;6.88;2.97;;;;;;;;;;5066113;28;21602;-71
2022/05/20 02:42:44;;;;;;;7.75;2.95;;;;;;;;;;5082782;28;20942;-73
2022/05/20 02:45:10;;;;;;;5.75;3.05;;;;;;;;;;5073268;28;20025;-73
2022/05/20 02:47:37;;;;;;;8.57;3.20;;;;;;;;;;5086218;28;20500;-72
2022/05/20 02:50:05;;;;;;;7.78;2.83;;;;;;;;;;5089771;28;20025;-73
2022/05/20 02:52:31;;;;;;;4.55;2.60;;;;;;;;;;5055075;28;20509;-73
2022/05/20 02:55:00;;;;;;;8.32;3.40;;;;;;;;;;5072505;28;20029;-74
2022/05/20 02:57:26;;;;;;;4.20;2.42;;;;;;;;;;5073716;28;20362;-73
2022/05/20 03:05:23;;;;;;;7.15;2.85;;;;;;;;;;5073744;28;20051;-73
2022/05/20 03:07:49;;;;;;;5.75;2.40;;;;;;;;;;5072882;28;20028;-71
2022/05/20 03:10:16;;;;;;;3.60;2.50;;;;;;;;;;5071656;28;20546;-74
2022/05/20 03:12:43;;;;;;;5.80;2.55;;;;;;;;;;5069275;28;20431;-74
2022/05/20 03:15:10;;;;;;;4.70;2.75;;;;;;;;;;5074104;28;20103;-73
2022/05/20 03:17:37;;;;;;;4.80;2.63;;;;;;;;;;5072877;28;20115;-73
2022/05/20 03:20:03;;;;;;;6.10;2.80;;;;;;;;;;5072990;28;20021;-74
2022/05/20 03:22:29;;;;;;;4.13;2.47;;;;;;;;;;5073087;28;20028;-74
2022/05/20 03:24:56;;;;;;;6.45;2.95;;;;;;;;;;5072933;28;20024;-74
2022/05/20 03:27:22;;;;;;;18.15;4.22;;;;;;;;;;5090390;28;20035;-71
2022/05/20 03:29:48;;;;;;;11.13;3.15;;;;;;;;;;5072596;28;20029;-72
2022/05/20 03:32:14;;;;;;;6.55;2.90;;;;;;;;;;5070845;28;20024;-72
2022/05/20 03:34:41;;;;;;;5.30;2.60;;;;;;;;;;5075222;28;20509;-73
2022/05/20 03:37:07;;;;;;;7.78;2.80;;;;;;;;;;5071909;28;20127;-71
2022/05/20 03:39:35;;;;;;;3.70;2.58;;;;;;;;;;5071024;28;20037;-73
2022/05/20 03:42:01;;;;;;;5.15;2.80;;;;;;;;;;5075264;28;20028;-74
2022/05/20 03:44:28;;;;;;;7.53;2.85;;;;;;;;;;5057530;28;20032;-72
2022/05/20 03:46:55;;;;;;;5.80;2.80;;;;;;;;;;5084915;28;20032;-74
2022/05/20 03:49:22;;;;;;;10.07;3.35;;;;;;;;;;5073660;28;20099;-73
2022/05/20 03:51:49;;;;;;;8.15;3.55;;;;;;;;;;5074979;28;20028;-74
2022/05/20 03:54:15;;;;;;;14.60;4.07;;;;;;;;;;5055151;28;20033;-74
2022/05/20 03:56:44;;;;;;;9.30;3.35;;;;;;;;;;5086693;28;20040;-74
2022/05/20 03:59:11;;;;;;;12.35;3.70;;;;;;;;;;5055130;28;20051;-74
2022/05/20 04:01:56;;;;;;;13.93;3.53;;;;;;;;;;5072842;28;20074;-75
2022/05/20 04:04:23;;;;;;;6.03;3.03;;;;;;;;;;5066523;28;20032;-72
2022/05/20 04:06:52;;;;;;;6.75;2.90;;;;;;;;;;5087400;28;20043;-72
2022/05/20 04:09:18;;;;;;;13.00;3.72;;;;;;;;;;5058360;28;20024;-72
2022/05/20 04:11:44;;;;;;;7.18;3.00;;;;;;;;;;5072248;28;20025;-72
2022/05/20 04:14:11;;;;;;;7.30;3.20;;;;;;;;;;5074077;28;20024;-74
2022/05/20 04:16:37;;;;;;;8.48;2.85;;;;;;;;;;5077569;28;20044;-71
2022/05/20 04:19:03;;;;;;;4.70;2.90;;;;;;;;;;5058096;28;20024;-71
2022/05/20 04:21:30;;;;;;;7.53;3.13;;;;;;;;;;5074264;28;20025;-75
2022/05/20 04:23:56;;;;;;;15.57;3.15;;;;;;;;;;5077740;28;20058;-75
2022/05/20 04:26:22;;;;;;;8.90;3.10;;;;;;;;;;5075850;28;20153;-73
2022/05/20 04:28:48;;;;;;;5.75;2.92;;;;;;;;;;5091113;28;20025;-74
2022/05/20 04:31:14;;;;;;;7.57;3.10;;;;;;;;;;5076969;28;20024;-72
2022/05/20 04:33:40;;;;;;;10.52;3.63;;;;;;;;;;5075374;28;20490;-75
2022/05/20 04:36:07;;;;;;;18.88;3.60;;;;;;;;;;5058246;28;20123;-74
2022/05/20 04:38:33;;;;;;;9.90;3.83;;;;;;;;;;5083412;28;20039;-74
2022/05/20 04:49:17;;;;;;;6.95;4.28;;;;;;;;;;5093568;28;20039;-75
2022/05/20 04:51:43;;;;;;;13.13;4.00;;;;;;;;;;5091504;28;20380;-74
2022/05/20 04:56:57;;;;;;;6.90;3.60;;;;;;;;;;5077566;28;20622;-74
2022/05/20 04:59:25;;;;;;;4.70;3.30;;;;;;;;;;5084279;28;20118;-74
2022/05/20 05:01:54;;;;;;;6.13;3.70;;;;;;;;;;5092919;28;20082;-77
2022/05/20 05:04:20;;;;;;;10.77;4.30;;;;;;;;;;5059800;28;20031;-75
2022/05/20 05:06:47;;;;;;;8.73;3.60;;;;;;;;;;5076064;28;20037;-73
2022/05/20 05:09:13;;;;;;;15.10;4.60;;;;;;;;;;5075682;28;20021;-78
2022/05/20 05:11:42;;;;;;;12.68;4.65;;;;;;;;;;5073877;28;20039;-76
2022/05/20 05:14:09;;;;;;;5.05;3.53;;;;;;;;;;5055836;28;20032;-70
2022/05/20 05:16:35;;;;;;;18.98;5.20;;;;;;;;;;5074639;28;20098;-72
2022/05/20 05:19:02;;;;;;;13.40;5.22;;;;;;;;;;5072710;28;20025;-73
2022/05/20 05:21:28;;;;;;;22.40;6.18;;;;;;;;;;5070976;28;22131;-74
2022/05/20 05:23:54;;;;;;;20.02;5.05;;;;;;;;;;5076633;28;20110;-76
2022/05/20 05:26:24;;;;;;;13.70;4.32;;;;;;;;;;5076107;28;20563;-72
2022/05/20 05:28:51;;;;;;;14.48;4.75;;;;;;;;;;5074365;28;20032;-71
2022/05/20 05:31:17;;;;;;;8.25;3.60;;;;;;;;;;5072832;28;20363;-78
2022/05/20 05:33:43;;;;;;;25.27;3.85;;;;;;;;;;5071310;28;20053;-73
2022/05/20 05:36:11;;;;;;;7.57;2.92;;;;;;;;;;5072455;28;20036;-75
2022/05/20 05:38:38;;;;;;;12.85;4.35;;;;;;;;;;5073012;28;20035;-74
2022/05/20 05:41:04;;;;;;;19.50;3.85;;;;;;;;;;5071769;28;20527;-75
2022/05/20 05:43:30;;;;;;;14.68;3.70;;;;;;;;;;5053902;28;20448;-74
2022/05/20 05:45:56;;;;;;;11.13;3.67;;;;;;;;;;5074244;28;20474;-72
2022/05/20 05:48:22;;;;;;;9.15;3.40;;;;;;;;;;5073763;28;20063;-72
2022/05/20 05:50:48;;;;;;;6.80;3.10;;;;;;;;;;5073446;28;20035;-81
2022/05/20 05:53:18;;;;;;;8.65;3.63;;;;;;;;;;5073125;28;20051;-70
2022/05/20 05:55:46;;;;;;;7.38;2.72;;;;;;;;;;5070706;28;20443;-70
2022/05/20 05:58:13;;;;;;;9.40;7.68;;;;;;;;;;5070098;28;20020;-70
2022/05/20 06:00:39;;;;;;;9.80;3.15;;;;;;;;;;5073168;28;20012;-73
2022/05/20 06:03:06;;;;;;;8.77;2.95;;;;;;;;;;5071439;28;20486;-70
2022/05/20 06:05:33;;;;;;;4.65;2.63;;;;;;;;;;5073639;28;20086;-70
2022/05/20 06:07:59;;;;;;;5.20;2.60;;;;;;;;;;5080598;28;20066;-70
2022/05/20 06:10:25;;;;;;;3.70;2.40;;;;;;;;;;5072790;28;20039;-74
2022/05/20 06:12:52;;;;;;;9.20;3.38;;;;;;;;;;5072104;28;20043;-74
2022/05/20 06:15:19;;;;;;;11.95;2.80;;;;;;;;;;5071221;28;20103;-69
2022/05/20 06:17:45;;;;;;;7.63;3.00;;;;;;;;;;5078817;28;20035;-70
2022/05/20 06:20:12;;;;;;;7.07;2.60;;;;;;;;;;5071155;28;20025;-70
2022/05/20 06:22:38;;;;;;;10.48;2.70;;;;;;;;;;5067667;28;20119;-71
2022/05/20 06:25:05;;;;;;;8.73;3.00;;;;;;;;;;5069276;28;20497;-72
2022/05/20 06:27:35;;;;;;;8.38;2.70;;;;;;;;;;5055593;28;20025;-75
2022/05/20 06:30:02;;;;;;;8.60;2.97;;;;;;;;;;5076095;28;20027;-72
2022/05/20 06:32:28;;;;;;;9.75;2.70;;;;;;;;;;5070827;28;20028;-71
2022/05/20 06:40:23;;;;;;;4.78;3.00;;;;;;;;;;5073839;28;20063;-71
2022/05/20 06:42:49;;;;;;;6.18;2.65;;;;;;;;;;5068438;28;20031;-70
2022/05/20 06:45:16;;;;;;;11.57;3.10;;;;;;;;;;5076736;28;20016;-72
2022/05/20 06:47:42;;;;;;;9.85;3.70;;;;;;;;;;5072551;28;20028;-74
2022/05/20 06:50:10;;;;;;;6.60;2.67;;;;;;;;;;5075888;28;20016;-76
2022/05/20 06:52:36;;;;;;;12.82;2.90;;;;;;;;;;5069925;28;20386;-79
2022/05/20 06:55:03;;;;;;;4.35;2.35;;;;;;;;;;5070137;28;20137;-72
2022/05/20 06:57:29;;;;;;;4.45;2.33;;;;;;;;;;5071957;28;20044;-71
2022/05/20 06:59:55;;;;;;;23.58;3.58;;;;;;;;;;5071522;28;20024;-72
2022/05/20 07:02:21;;;;;;;87.20;7.90;;;;;;;;;;5072315;28;20115;-79
2022/05/20 07:04:47;;;;;;;17.90;4.20;;;;;;;;;;5067473;28;20017;-84
2022/05/20 07:07:13;;;;;;;44.55;6.72;;;;;;;;;;5073073;28;20031;-80
2022/05/20 07:09:40;;;;;;;50.03;6.15;;;;;;;;;;5071121;28;20108;-70
2022/05/20 07:12:06;;;;;;;25.63;3.85;;;;;;;;;;5067757;28;20067;-71
2022/05/20 07:14:32;;;;;;;13.13;3.83;;;;;;;;;;5071507;28;20025;-72
2022/05/20 07:17:01;;;;;;;7.80;2.97;;;;;;;;;;5079549;28;20486;-71
2022/05/20 07:19:27;;;;;;;30.35;5.63;;;;;;;;;;5070936;28;20537;-73
2022/05/20 07:21:53;;;;;;;22.75;3.97;;;;;;;;;;5072341;28;20073;-70
2022/05/20 07:24:19;;;;;;;11.48;3.58;;;;;;;;;;5070556;28;20064;-74
2022/05/20 07:26:47;;;;;;;14.80;4.00;;;;;;;;;;5081136;28;20051;-71
2022/05/20 07:29:13;;;;;;;9.77;2.90;;;;;;;;;;5068655;28;20126;-81
2022/05/20 07:31:39;;;;;;;9.02;3.00;;;;;;;;;;5072262;28;20056;-75
2022/05/20 07:34:05;;;;;;;11.85;3.50;;;;;;;;;;5057444;28;20090;-71
2022/05/20 07:36:31;;;;;;;5.70;2.92;;;;;;;;;;5072254;28;20500;-68
2022/05/20 07:38:57;;;;;;;9.38;3.88;;;;;;;;;;5075044;28;20099;-71
2022/05/20 07:41:24;;;;;;;6.93;3.38;;;;;;;;;;5070263;28;20113;-69
2022/05/20 07:43:50;;;;;;;15.85;3.90;;;;;;;;;;5071446;28;20035;-70
2022/05/20 07:46:17;;;;;;;8.32;2.92;;;;;;;;;;5070651;28;20021;-69
2022/05/20 07:48:43;;;;;;;6.05;4.00;;;;;;;;;;5070523;28;20032;-70
2022/05/20 07:51:17;;;;;;;8.32;2.53;;;;;;;;;;5070969;28;20359;-68
2022/05/20 07:53:44;;;;;;;13.43;3.20;;;;;;;;;;5063438;28;20056;-70
2022/05/20 07:56:20;;;;;;;7.57;3.15;;;;;;;;;;5071186;28;20024;-72
2022/05/20 07:58:49;;;;;;;12.45;3.25;;;;;;;;;;5087139;28;20043;-76
2022/05/20 08:01:20;;;;;;;20.45;4.03;;;;;;;;;;5080793;28;20062;-74
2022/05/20 08:06:33;;;;;;;9.23;3.40;;;;;;;;;;5070452;28;20067;-73
2022/05/20 08:09:00;;;;;;;7.15;3.70;;;;;;;;;;5075108;28;20025;-70
2022/05/20 08:11:28;;;;;;;11.82;3.80;;;;;;;;;;5075231;28;20028;-70
2022/05/20 08:13:54;;;;;;;13.98;3.95;;;;;;;;;;5092042;28;20012;-71
2022/05/20 08:16:20;;;;;;;12.45;4.03;;;;;;;;;;5081234;28;20040;-77
2022/05/20 08:18:46;;;;;;;18.10;7.93;;;;;;;;;;5087217;28;20021;-71
2022/05/20 08:21:12;;;;;;;9.73;5.05;;;;;;;;;;5072329;28;20025;-72
2022/05/20 08:23:38;;;;;;;7.43;3.50;;;;;;;;;;5074797;28;20032;-77
2022/05/20 08:26:05;;;;;;;12.45;3.67;;;;;;;;;;5082296;28;20100;-76
2022/05/20 08:28:31;;;;;;;9.05;4.20;;;;;;;;;;5074794;28;20032;-77
2022/05/20 08:30:57;;;;;;;9.05;3.63;;;;;;;;;;5075600;28;20052;-76
2022/05/20 08:33:23;;;;;;;7.85;3.35;;;;;;;;;;5073636;28;20036;-75
2022/05/20 08:35:49;;;;;;;10.23;3.35;;;;;;;;;;5075437;28;20024;-77
2022/05/20 08:38:17;;;;;;;8.82;3.25;;;;;;;;;;5071859;28;20032;-77
2022/05/20 08:40:44;;;;;;;5.93;3.03;;;;;;;;;;5073347;28;20040;-81
2022/05/20 08:43:11;;;;;;;5.95;3.00;;;;;;;;;;5087557;28;20382;-86
2022/05/20 08:45:37;;;;;;;8.27;2.72;;;;;;;;;;5055274;28;20028;-83
2022/05/20 08:48:04;;;;;;;9.82;2.80;;;;;;;;;;5078378;28;20031;-81
2022/05/20 08:50:37;;;;;;;11.25;2.90;;;;;;;;;;5073914;28;20142;-79
2022/05/20 08:53:04;;;;;;;11.43;3.38;;;;;;;;;;5073876;28;20024;-81
2022/05/20 08:55:30;;;;;;;9.38;2.78;;;;;;;;;;5074512;28;20037;-86
2022/05/20 08:57:58;;;;;;;21.67;3.75;;;;;;;;;;5075196;28;20033;-77
2022/05/20 09:00:24;;;;;;;8.93;3.00;;;;;;;;;;5071854;28;20028;-76
2022/05/20 09:02:50;;;;;;;6.80;2.90;;;;;;;;;;5073972;28;20107;-83
2022/05/20 09:05:19;;;;;;;3.72;2.70;;;;;;;;;;5073829;28;20020;-84
2022/05/20 09:07:57;;;;;;;4.88;3.10;;;;;;;;;;5068747;28;20111;-76
2022/05/20 09:10:43;;;;;;;7.53;2.78;;;;;;;;;;5072444;28;20032;-81
2022/05/20 09:13:19;;;;;;;4.93;2.70;;;;;;;;;;5075562;28;20029;-86
2022/05/20 09:15:56;;;;;;;14.68;3.42;;;;;;;;;;5058735;28;20051;-72
2022/05/20 09:18:34;;;;;;;13.98;3.20;;;;;;;;;;5073091;28;20032;-75
2022/05/20 09:21:00;;;;;;;7.90;2.85;;;;;;;;;;5074154;28;20024;-77
2022/05/20 09:23:26;;;;;;;4.03;2.60;;;;;;;;;;5074981;28;20032;-77
2022/05/20 09:25:52;;;;;;;7.22;3.40;;;;;;;;;;5074479;28;20025;-75
2022/05/20 09:28:18;;;;;;;5.47;3.20;;;;;;;;;;5088863;28;20043;-77
2022/05/20 09:30:47;;;;;;;7.15;2.85;;;;;;;;;;5056728;28;20367;-85
2022/05/20 09:33:16;;;;;;;11.70;3.20;;;;;;;;;;5073807;28;20044;-75
2022/05/20 09:35:47;;;;;;;4.03;3.00;;;;;;;;;;5054448;28;20104;-78
2022/05/20 09:38:32;;;;;;;9.23;3.10;;;;;;;;;;5085471;28;20075;-76
2022/05/20 09:40:58;;;;;;;5.15;2.88;;;;;;;;;;5094636;28;20020;-76
2022/05/20 09:43:28;;;;;;;11.45;3.50;;;;;;;;;;5091595;28;20036;-79
2022/05/20 09:45:55;;;;;;;10.25;3.22;;;;;;;;;;5073953;28;20040;-76
2022/05/20 09:48:45;;;;;;;21.02;3.17;;;;;;;;;;5082695;28;20024;-78
2022/05/20 09:51:17;;;;;;;3.50;2.65;;;;;;;;;;5094664;28;20024;-81
2022/05/20 09:53:45;;;;;;;5.67;3.00;;;;;;;;;;5078765;28;20051;-82
2022/05/20 09:56:18;;;;;;;17.45;3.55;;;;;;;;;;5074120;28;20060;-78
2022/05/20 09:58:59;;;;;;;24.05;5.93;;;;;;;;;;5080080;28;20047;-79
2022/05/20 10:01:26;;;;;;;8.50;3.67;;;;;;;;;;5094111;28;20017;-76
2022/05/20 10:03:57;;;;;;;10.68;3.38;;;;;;;;;;5085027;28;20059;-74
2022/05/20 10:06:23;;;;;;;7.47;2.88;;;;;;;;;;5073753;28;20537;-75
2022/05/20 10:08:57;;;;;;;9.32;3.53;;;;;;;;;;5074850;28;20032;-74
2022/05/20 10:11:37;;;;;;;24.67;3.70;;;;;;;;;;5073606;28;20144;-76
2022/05/20 10:14:10;;;;;;;10.70;2.78;;;;;;;;;;5073291;28;20028;-78
2022/05/20 10:16:58;;;;;;;8.48;3.20;;;;;;;;;;5071846;28;20500;-73
2022/05/20 10:19:43;;;;;;;6.07;3.00;;;;;;;;;;5066501;28;20483;-79
2022/05/20 10:22:17;;;;;;;28.75;3.92;;;;;;;;;;5071814;28;20020;-78
2022/05/20 10:24:55;;;;;;;11.15;2.97;;;;;;;;;;5071187;28;20124;-79
2022/05/20 10:27:28;;;;;;;6.90;2.63;;;;;;;;;;5073041;28;20028;-77
2022/05/20 10:32:47;;;;;;;8.32;2.95;;;;;;;;;;5066861;28;20044;-78
2022/05/20 10:35:21;;;;;;;11.32;3.25;;;;;;;;;;5072588;28;20044;-82
2022/05/20 10:37:49;;;;;;;7.03;3.15;;;;;;;;;;5072443;28;20109;-81
2022/05/20 10:40:33;;;;;;;15.82;3.50;;;;;;;;;;5073066;28;20020;-79
2022/05/20 10:43:08;;;;;;;10.10;3.80;;;;;;;;;;5072528;28;20481;-78
2022/05/20 10:48:36;;;;;;;5.53;2.47;;;;;;;;;;5072184;28;20056;-84
2022/05/20 10:51:20;;;;;;;7.22;2.80;;;;;;;;;;5070589;28;20023;-85
2022/05/20 10:53:55;;;;;;;6.35;2.40;;;;;;;;;;5069107;28;20032;-84
2022/05/20 10:56:39;;;;;;;6.72;3.15;;;;;;;;;;5049628;28;20035;-87
2022/05/20 10:59:25;;;;;;;9.25;3.30;;;;;;;;;;5071102;28;20131;-76
2022/05/20 11:02:10;;;;;;;4.68;2.80;;;;;;;;;;5070527;28;20029;-74
2022/05/20 11:04:47;;;;;;;5.55;2.67;;;;;;;;;;5069557;28;20027;-72
2022/05/20 11:07:32;;;;;;;7.60;2.83;;;;;;;;;;5070867;28;20489;-76
2022/05/20 11:10:16;;;;;;;13.10;3.17;;;;;;;;;;5071380;28;20082;-79
2022/05/20 11:12:42;;;;;;;15.80;3.35;;;;;;;;;;5069850;28;20035;-81
2022/05/20 11:15:15;;;;;;;15.48;3.90;;;;;;;;;;5070124;28;20029;-79
2022/05/20 11:17:59;;;;;;;6.68;2.83;;;;;;;;;;5073604;28;20032;-82
2022/05/20 11:20:35;;;;;;;5.32;2.72;;;;;;;;;;5075728;28;20063;-78
2022/05/20 11:23:20;;;;;;;7.10;2.58;;;;;;;;;;5080775;28;20033;-78
2022/05/20 11:25:52;;;;;;;5.68;3.00;;;;;;;;;;5072117;28;20500;-76
2022/05/20 11:28:27;;;;;;;8.63;3.00;;;;;;;;;;5081542;28;20150;-77
2022/05/20 11:31:12;;;;;;;5.30;2.83;;;;;;;;;;5061847;28;20040;-73
2022/05/20 11:33:54;;;;;;;4.20;2.60;;;;;;;;;;5066838;28;20063;-79
2022/05/20 11:36:30;;;;;;;5.57;2.50;;;;;;;;;;5070470;28;20029;-74
2022/05/20 11:39:18;;;;;;;6.43;2.65;;;;;;;;;;5074700;28;20112;-80
2022/05/20 11:41:53;;;;;;;5.82;2.70;;;;;;;;;;5058672;28;20032;-79
2022/05/20 11:44:22;;;;;;;6.60;2.58;;;;;;;;;;5071719;28;20439;-77
2022/05/20 11:47:04;;;;;;;5.93;4.30;;;;;;;;;;5072277;28;20482;-75
2022/05/20 11:49:33;;;;;;;11.10;4.00;;;;;;;;;;5066987;28;20033;-85
2022/05/20 11:52:25;;;;;;;10.45;6.10;;;;;;;;;;5070738;28;20036;-84
2022/05/20 11:54:51;;;;;;;8.88;3.25;;;;;;;;;;5009388;28;20045;-87
2022/05/20 11:57:19;;;;;;;7.80;2.75;;;;;;;;;;4999981;28;20046;-86
2022/05/20 11:59:49;;;;;;;5.90;2.95;;;;;;;;;;5007474;28;20042;-88
2022/05/20 12:02:17;;;;;;;8.95;2.97;;;;;;;;;;4989411;28;20027;-86
2022/05/20 12:04:44;;;;;;;6.88;3.10;;;;;;;;;;5016765;28;20052;-87
2022/05/20 12:07:18;;;;;;;20.27;3.45;;;;;;;;;;4990432;28;20061;-91
2022/05/20 12:09:51;;;;;;;7.32;2.85;;;;;;;;;;4994718;28;20041;-92
2022/05/20 12:12:24;;;;;;;14.80;2.97;;;;;;;;;;5011201;28;20030;-90
2022/05/20 12:14:51;;;;;;;;;;;;;;;;;;5010470;28;20387;-91
2022/05/20 12:17:28;;;;;;;11.63;3.08;;;;;;;;;;5008620;28;19921;-85
2022/05/20 12:25:39;;;;;;;14.23;3.60;;;;;;;;;;5003352;28;20036;-74
2022/05/20 12:28:10;;;;;;;16.55;3.97;;;;;;;;;;5001451;28;20402;-74
2022/05/20 12:30:44;;;;;;;18.13;3.42;;;;;;;;;;5011837;28;20345;-82
2022/05/20 12:33:25;;;;;;;18.30;3.63;;;;;;;;;;5070013;28;20020;-77
2022/05/20 12:36:09;;;;;;;19.00;3.33;;;;;;;;;;5071356;28;20040;-90
2022/05/20 12:38:35;;;;;;;52.40;6.38;;;;;;;;;;5085821;28;20035;-87
2022/05/20 12:41:02;;;;;;;11.20;3.38;;;;;;;;;;5072248;28;20111;-87
2022/05/20 12:43:41;;;;;;;99.90;10.32;;;;;;;;;;5074467;28;20059;-91
2022/05/20 12:46:10;;;;;;;14.93;4.10;;;;;;;;;;5076045;28;20025;-90
2022/05/20 12:48:36;;;;;;;78.78;8.48;;;;;;;;;;5089452;28;20116;-88
2022/05/20 12:51:07;;;;;;;106.22;9.95;;;;;;;;;;5078057;28;20466;-90
2022/05/20 12:53:34;;;;;;;266.95;23.50;;;;;;;;;;5090283;28;20547;-84
2022/05/20 12:56:00;;;;;;;153.50;14.57;;;;;;;;;;5091398;28;20066;-90
2022/05/20 12:58:31;;;;;;;91.13;9.95;;;;;;;;;;5076261;28;20033;-76
2022/05/20 13:00:59;;;;;;;8.57;2.90;;;;;;;;;;5063853;28;20025;-79
2022/05/20 13:03:25;;;;;;;30.80;4.60;;;;;;;;;;5075506;28;20028;-87
2022/05/20 13:05:51;;;;;;;64.75;6.63;;;;;;;;;;5091114;28;20066;-89
2022/05/20 13:08:19;;;;;;;19.85;3.38;;;;;;;;;;5075785;28;20025;-86
2022/05/20 13:10:45;;;;;;;68.72;7.70;;;;;;;;;;5073601;28;20494;-90
2022/05/20 13:13:15;;;;;;;237.15;20.05;;;;;;;;;;5078127;28;20024;-85
2022/05/20 13:15:47;;;;;;;75.60;8.55;;;;;;;;;;5092852;28;20489;-81
2022/05/20 13:18:23;;;;;;;107.55;11.63;;;;;;;;;;5067988;28;20090;-84
2022/05/20 13:20:51;;;;;;;55.05;7.65;;;;;;;;;;5075650;28;20032;-91
2022/05/20 13:23:19;;;;;;;39.50;5.97;;;;;;;;;;5091023;28;20025;-83
2022/05/20 13:25:45;;;;;;;58.10;7.88;;;;;;;;;;5075668;28;20021;-90
2022/05/20 13:28:12;;;;;;;41.17;6.47;;;;;;;;;;5079008;28;20020;-92
2022/05/20 13:30:38;;;;;;;68.10;8.88;;;;;;;;;;5076370;28;20110;-78
2022/05/20 13:33:06;;;;;;;20.02;4.03;;;;;;;;;;5074660;28;20082;-83
2022/05/20 13:35:39;;;;;;;4.20;2.58;;;;;;;;;;5074801;28;20079;-82
2022/05/20 13:38:06;;;;;;;68.95;8.82;;;;;;;;;;5087135;28;20047;-88
2022/05/20 13:40:34;;;;;;;12.77;3.42;;;;;;;;;;5092960;28;20031;-91
2022/05/20 13:43:01;;;;;;;41.10;5.13;;;;;;;;;;5095285;28;20020;-88
2022/05/20 13:51:13;;;;;;;29.02;5.43;;;;;;;;;;5093449;28;20547;-93
2022/05/20 13:53:40;;;;;;;16.70;3.65;;;;;;;;;;5062721;28;20113;-91
2022/05/20 13:56:08;;;;;;;20.88;5.65;;;;;;;;;;5094311;28;20037;-88
2022/05/20 13:58:35;;;;;;;43.72;8.95;;;;;;;;;;5093096;28;20032;-89
2022/05/20 14:01:03;;;;;;;24.63;5.28;;;;;;;;;;5076942;28;20027;-86
2022/05/20 14:03:30;;;;;;;25.98;6.05;;;;;;;;;;5074685;28;20035;-86
2022/05/20 14:06:04;;;;;;;23.73;5.57;;;;;;;;;;5093625;28;20055;-93
2022/05/20 14:08:31;;;;;;;73.53;8.20;;;;;;;;;;5091909;28;20447;-92
2022/05/20 14:11:02;;;;;;;6.85;3.38;;;;;;;;;;5091871;28;20378;-82
2022/05/20 14:13:35;;;;;;;28.48;4.70;;;;;;;;;;5094352;28;20020;-82
2022/05/20 14:16:01;;;;;;;34.97;4.65;;;;;;;;;;5077725;28;20021;-80
2022/05/20 14:18:39;;;;;;;23.92;4.38;;;;;;;;;;5074178;28;20051;-91
2022/05/20 14:21:11;;;;;;;23.73;5.03;;;;;;;;;;5075091;28;20446;-82
2022/05/20 14:23:57;;;;;;;19.00;4.35;;;;;;;;;;5074494;28;20382;-88
2022/05/20 14:26:26;;;;;;;5.82;2.83;;;;;;;;;;5078418;28;20033;-80
2022/05/20 14:28:57;;;;;;;16.83;4.32;;;;;;;;;;5073164;28;20115;-84
2022/05/20 14:31:28;;;;;;;15.70;4.18;;;;;;;;;;5073674;28;20507;-79
2022/05/20 14:34:03;;;;;;;10.90;4.20;;;;;;;;;;5073611;28;20359;-78
2022/05/20 14:36:30;;;;;;;5.90;2.85;;;;;;;;;;5074788;28;20033;-88
2022/05/20 14:38:57;;;;;;;15.02;3.90;;;;;;;;;;5073749;28;20086;-79
2022/05/20 14:41:25;;;;;;;13.27;3.30;;;;;;;;;;5079073;28;20032;-79
2022/05/20 14:43:59;;;;;;;7.85;2.97;;;;;;;;;;5079281;28;20020;-92
2022/05/20 14:49:16;;;;;;;15.68;4.63;;;;;;;;;;5092392;28;20087;-78
2022/05/20 14:51:50;;;;;;;11.73;3.50;;;;;;;;;;5075705;28;20024;-81
2022/05/20 14:54:16;;;;;;;17.80;4.30;;;;;;;;;;5081714;28;20017;-83
2022/05/20 14:56:47;;;;;;;12.15;3.75;;;;;;;;;;5073556;28;20564;-81
2022/05/20 14:59:13;;;;;;;13.82;3.85;;;;;;;;;;5070326;28;20095;-82
2022/05/20 15:01:42;;;;;;;11.05;3.42;;;;;;;;;;5069434;28;20470;-75
2022/05/20 15:04:08;;;;;;;15.65;4.82;;;;;;;;;;5049894;28;20024;-78
2022/05/20 15:06:36;;;;;;;13.93;4.05;;;;;;;;;;5068291;28;20025;-79
2022/05/20 15:09:03;;;;;;;11.15;3.67;;;;;;;;;;5068875;28;20024;-75
2022/05/20 15:11:39;;;;;;;8.68;3.30;;;;;;;;;;5071284;28;20029;-82
2022/05/20 15:14:05;;;;;;;7.60;3.10;;;;;;;;;;5055047;28;20401;-81
2022/05/20 15:16:32;;;;;;;10.93;3.53;;;;;;;;;;5056117;28;20127;-84
2022/05/20 15:18:58;;;;;;;10.25;4.00;;;;;;;;;;5077475;28;20027;-80
2022/05/20 15:21:27;;;;;;;9.25;3.05;;;;;;;;;;5075075;28;20032;-86
2022/05/20 15:24:16;;;;;;;5.65;3.00;;;;;;;;;;5072890;28;20466;-78
2022/05/20 15:26:42;;;;;;;12.85;3.28;;;;;;;;;;5070311;28;20027;-88
2022/05/20 15:29:08;;;;;;;11.40;3.45;;;;;;;;;;5070581;28;20499;-90
2022/05/20 15:37:17;;;;;;;10.80;3.55;;;;;;;;;;5068411;28;20528;-78
2022/05/20 15:39:47;;;;;;;12.82;3.38;;;;;;;;;;5063744;28;20131;-86
2022/05/20 15:42:15;;;;;;;11.73;3.42;;;;;;;;;;5071272;28;20021;-87
2022/05/20 15:44:41;;;;;;;5.88;3.35;;;;;;;;;;5072750;28;20074;-86